sensor_id;sensor_type;location;lat;lon;timestamp;temperature;humidity
14411;DHT22;7290;50.854;4.354;2023-05-10T00:00:57;14.20;99.90
14411;DHT22;7290;50.854;4.354;2023-05-10T00:03:23;14.20;99.90
14411;DHT22;7290;50.854;4.354;2023-05-10T00:05:50;14.20;99.90
14411;DHT22;7290;50.854;4.354;2023-05-10T00:08:16;14.10;99.90
14411;DHT22;7290;50.854;4.354;2023-05-10T00:10:42;14.10;99.90
14411;DHT22;7290;50.854;4.354;2023-05-10T00:13:09;14.10;99.90
14411;DHT22;7290;50.854;4.354;2023-05-10T00:15:35;14.10;99.90
14411;DHT22;7290;50.854;4.354;2023-05-10T00:18:01;14.20;99.90
14411;DHT22;7290;50.854;4.354;2023-05-10T00:20:27;14.20;99.90
14411;DHT22;7290;50.854;4.354;2023-05-10T00:22:53;14.30;99.90
14411;DHT22;7290;50.854;4.354;2023-05-10T00:25:19;14.30;99.90
14411;DHT22;7290;50.854;4.354;2023-05-10T00:27:47;14.30;99.90
14411;DHT22;7290;50.854;4.354;2023-05-10T00:30:13;14.20;99.90
14411;DHT22;7290;50.854;4.354;2023-05-10T00:32:40;14.10;99.90
14411;DHT22;7290;50.854;4.354;2023-05-10T00:35:07;14.00;99.90
14411;DHT22;7290;50.854;4.354;2023-05-10T00:37:33;14.10;99.90
14411;DHT22;7290;50.854;4.354;2023-05-10T00:39:59;14.20;99.90
14411;DHT22;7290;50.854;4.354;2023-05-10T00:42:25;14.20;99.90
14411;DHT22;7290;50.854;4.354;2023-05-10T00:44:51;14.20;99.90
14411;DHT22;7290;50.854;4.354;2023-05-10T00:47:18;14.20;99.90
14411;DHT22;7290;50.854;4.354;2023-05-10T00:49:44;14.30;99.90
14411;DHT22;7290;50.854;4.354;2023-05-10T00:52:11;14.30;99.90
14411;DHT22;7290;50.854;4.354;2023-05-10T00:54:37;14.30;99.90
14411;DHT22;7290;50.854;4.354;2023-05-10T00:57:03;14.40;99.90
14411;DHT22;7290;50.854;4.354;2023-05-10T00:59:30;14.30;99.90
14411;DHT22;7290;50.854;4.354;2023-05-10T01:01:57;14.30;99.90
14411;DHT22;7290;50.854;4.354;2023-05-10T01:04:24;14.30;99.90
14411;DHT22;7290;50.854;4.354;2023-05-10T01:06:51;14.20;99.90
14411;DHT22;7290;50.854;4.354;2023-05-10T01:09:18;14.20;99.90
14411;DHT22;7290;50.854;4.354;2023-05-10T01:11:44;14.20;99.90
14411;DHT22;7290;50.854;4.354;2023-05-10T01:14:11;14.20;99.90
14411;DHT22;7290;50.854;4.354;2023-05-10T01:16:38;14.20;99.90
14411;DHT22;7290;50.854;4.354;2023-05-10T01:19:10;14.10;99.90
14411;DHT22;7290;50.854;4.354;2023-05-10T01:21:43;14.10;99.90
14411;DHT22;7290;50.854;4.354;2023-05-10T01:24:46;14.10;99.90
14411;DHT22;7290;50.854;4.354;2023-05-10T01:27:30;14.20;99.90
14411;DHT22;7290;50.854;4.354;2023-05-10T01:33:18;14.40;99.90
14411;DHT22;7290;50.854;4.354;2023-05-10T01:35:53;14.40;99.90
14411;DHT22;7290;50.854;4.354;2023-05-10T01:38:27;14.40;99.90
14411;DHT22;7290;50.854;4.354;2023-05-10T01:41:03;14.40;99.90
14411;DHT22;7290;50.854;4.354;2023-05-10T01:43:37;14.40;99.90
14411;DHT22;7290;50.854;4.354;2023-05-10T01:46:07;14.40;99.90
14411;DHT22;7290;50.854;4.354;2023-05-10T01:48:37;14.30;99.90
14411;DHT22;7290;50.854;4.354;2023-05-10T01:51:05;14.30;99.90
14411;DHT22;7290;50.854;4.354;2023-05-10T01:53:33;14.40;99.90
14411;DHT22;7290;50.854;4.354;2023-05-10T01:56:01;14.30;99.90
14411;DHT22;7290;50.854;4.354;2023-05-10T01:58:31;14.20;99.90
14411;DHT22;7290;50.854;4.354;2023-05-10T02:01:00;14.10;99.90
14411;DHT22;7290;50.854;4.354;2023-05-10T02:03:28;14.10;99.90
14411;DHT22;7290;50.854;4.354;2023-05-10T02:05:56;14.10;99.90
14411;DHT22;7290;50.854;4.354;2023-05-10T02:08:23;14.10;99.90
14411;DHT22;7290;50.854;4.354;2023-05-10T02:10:52;14.20;99.90
14411;DHT22;7290;50.854;4.354;2023-05-10T02:13:19;14.20;99.90
14411;DHT22;7290;50.854;4.354;2023-05-10T02:15:47;14.20;99.90
14411;DHT22;7290;50.854;4.354;2023-05-10T02:18:14;14.00;99.90
14411;DHT22;7290;50.854;4.354;2023-05-10T02:20:42;14.10;99.90
14411;DHT22;7290;50.854;4.354;2023-05-10T02:23:09;14.10;99.90
14411;DHT22;7290;50.854;4.354;2023-05-10T02:25:37;13.90;99.90
14411;DHT22;7290;50.854;4.354;2023-05-10T02:28:06;14.00;99.90
14411;DHT22;7290;50.854;4.354;2023-05-10T02:30:33;14.00;99.90
14411;DHT22;7290;50.854;4.354;2023-05-10T02:33:00;14.00;99.90
14411;DHT22;7290;50.854;4.354;2023-05-10T02:35:27;14.00;99.90
14411;DHT22;7290;50.854;4.354;2023-05-10T02:37:54;14.00;99.90
14411;DHT22;7290;50.854;4.354;2023-05-10T02:40:24;14.00;99.90
14411;DHT22;7290;50.854;4.354;2023-05-10T02:42:52;14.00;99.90
14411;DHT22;7290;50.854;4.354;2023-05-10T02:45:23;13.90;99.90
14411;DHT22;7290;50.854;4.354;2023-05-10T02:47:50;14.00;99.90
14411;DHT22;7290;50.854;4.354;2023-05-10T02:50:16;14.00;99.90
14411;DHT22;7290;50.854;4.354;2023-05-10T02:52:46;13.90;99.90
14411;DHT22;7290;50.854;4.354;2023-05-10T02:55:15;13.90;99.90
14411;DHT22;7290;50.854;4.354;2023-05-10T02:57:45;13.90;99.90
14411;DHT22;7290;50.854;4.354;2023-05-10T03:00:12;13.90;99.90
14411;DHT22;7290;50.854;4.354;2023-05-10T03:02:38;13.90;99.90
14411;DHT22;7290;50.854;4.354;2023-05-10T03:05:05;13.90;99.90
14411;DHT22;7290;50.854;4.354;2023-05-10T03:07:31;13.80;99.90
14411;DHT22;7290;50.854;4.354;2023-05-10T03:09:58;13.90;99.90
14411;DHT22;7290;50.854;4.354;2023-05-10T03:12:33;13.90;99.90
14411;DHT22;7290;50.854;4.354;2023-05-10T03:15:07;13.80;99.90
14411;DHT22;7290;50.854;4.354;2023-05-10T03:17:44;13.90;99.90
14411;DHT22;7290;50.854;4.354;2023-05-10T03:20:19;13.90;99.90
14411;DHT22;7290;50.854;4.354;2023-05-10T03:22:50;14.00;99.90
14411;DHT22;7290;50.854;4.354;2023-05-10T03:25:19;14.10;99.90
14411;DHT22;7290;50.854;4.354;2023-05-10T03:27:46;14.10;99.90
14411;DHT22;7290;50.854;4.354;2023-05-10T03:30:13;14.00;99.90
14411;DHT22;7290;50.854;4.354;2023-05-10T03:32:40;14.00;99.90
14411;DHT22;7290;50.854;4.354;2023-05-10T03:35:07;14.00;99.90
14411;DHT22;7290;50.854;4.354;2023-05-10T03:37:33;14.10;99.90
14411;DHT22;7290;50.854;4.354;2023-05-10T03:39:59;14.20;99.90
14411;DHT22;7290;50.854;4.354;2023-05-10T03:42:25;14.20;99.90
14411;DHT22;7290;50.854;4.354;2023-05-10T03:44:51;14.20;99.90
14411;DHT22;7290;50.854;4.354;2023-05-10T03:47:18;14.20;99.90
14411;DHT22;7290;50.854;4.354;2023-05-10T03:49:44;14.20;99.90
14411;DHT22;7290;50.854;4.354;2023-05-10T03:52:10;14.10;99.90
14411;DHT22;7290;50.854;4.354;2023-05-10T03:54:36;14.10;99.90
14411;DHT22;7290;50.854;4.354;2023-05-10T03:57:02;14.10;99.90
14411;DHT22;7290;50.854;4.354;2023-05-10T03:59:29;14.20;99.90
14411;DHT22;7290;50.854;4.354;2023-05-10T04:01:55;14.30;99.90
14411;DHT22;7290;50.854;4.354;2023-05-10T04:04:22;14.40;99.90
14411;DHT22;7290;50.854;4.354;2023-05-10T04:06:48;14.50;99.90
14411;DHT22;7290;50.854;4.354;2023-05-10T04:09:14;14.50;99.90
14411;DHT22;7290;50.854;4.354;2023-05-10T04:11:42;14.50;99.90
14411;DHT22;7290;50.854;4.354;2023-05-10T04:14:08;14.30;99.90
14411;DHT22;7290;50.854;4.354;2023-05-10T04:16:34;14.20;99.90
14411;DHT22;7290;50.854;4.354;2023-05-10T04:19:00;14.30;99.90
14411;DHT22;7290;50.854;4.354;2023-05-10T04:21:27;14.30;99.90
14411;DHT22;7290;50.854;4.354;2023-05-10T04:23:53;14.20;99.90
14411;DHT22;7290;50.854;4.354;2023-05-10T04:26:19;14.30;99.90
14411;DHT22;7290;50.854;4.354;2023-05-10T04:28:45;14.30;99.90
14411;DHT22;7290;50.854;4.354;2023-05-10T04:31:11;14.30;99.90
14411;DHT22;7290;50.854;4.354;2023-05-10T04:33:37;14.20;99.90
14411;DHT22;7290;50.854;4.354;2023-05-10T04:36:04;14.30;99.90
14411;DHT22;7290;50.854;4.354;2023-05-10T04:38:31;14.20;99.90
14411;DHT22;7290;50.854;4.354;2023-05-10T04:41:04;14.20;99.90
14411;DHT22;7290;50.854;4.354;2023-05-10T04:43:30;14.10;99.90
14411;DHT22;7290;50.854;4.354;2023-05-10T04:45:56;14.20;99.90
14411;DHT22;7290;50.854;4.354;2023-05-10T04:48:22;14.20;99.90
14411;DHT22;7290;50.854;4.354;2023-05-10T04:50:49;14.30;99.90
14411;DHT22;7290;50.854;4.354;2023-05-10T04:53:14;14.40;99.90
14411;DHT22;7290;50.854;4.354;2023-05-10T04:55:41;14.40;99.90
14411;DHT22;7290;50.854;4.354;2023-05-10T04:58:07;14.50;99.90
14411;DHT22;7290;50.854;4.354;2023-05-10T05:00:33;14.50;99.90
14411;DHT22;7290;50.854;4.354;2023-05-10T05:02:59;14.30;99.90
14411;DHT22;7290;50.854;4.354;2023-05-10T05:05:26;14.30;99.90
14411;DHT22;7290;50.854;4.354;2023-05-10T05:07:52;14.50;99.90
14411;DHT22;7290;50.854;4.354;2023-05-10T05:10:18;14.50;99.90
14411;DHT22;7290;50.854;4.354;2023-05-10T05:12:45;14.60;99.90
14411;DHT22;7290;50.854;4.354;2023-05-10T05:15:11;14.50;99.90
14411;DHT22;7290;50.854;4.354;2023-05-10T05:17:37;14.60;99.90
14411;DHT22;7290;50.854;4.354;2023-05-10T05:20:04;14.60;99.90
14411;DHT22;7290;50.854;4.354;2023-05-10T05:22:30;14.60;99.90
14411;DHT22;7290;50.854;4.354;2023-05-10T05:24:56;14.70;99.90
14411;DHT22;7290;50.854;4.354;2023-05-10T05:27:24;14.60;99.90
14411;DHT22;7290;50.854;4.354;2023-05-10T05:29:53;14.50;99.90
14411;DHT22;7290;50.854;4.354;2023-05-10T05:32:19;14.30;99.90
14411;DHT22;7290;50.854;4.354;2023-05-10T05:34:45;14.10;99.90
14411;DHT22;7290;50.854;4.354;2023-05-10T05:37:13;14.00;99.90
14411;DHT22;7290;50.854;4.354;2023-05-10T05:39:40;14.00;99.90
14411;DHT22;7290;50.854;4.354;2023-05-10T05:42:06;13.90;99.90
14411;DHT22;7290;50.854;4.354;2023-05-10T05:44:32;14.00;99.90
14411;DHT22;7290;50.854;4.354;2023-05-10T05:46:58;14.10;99.90
14411;DHT22;7290;50.854;4.354;2023-05-10T05:49:24;14.10;99.90
14411;DHT22;7290;50.854;4.354;2023-05-10T05:51:50;14.10;99.90
14411;DHT22;7290;50.854;4.354;2023-05-10T05:54:16;14.10;99.90
14411;DHT22;7290;50.854;4.354;2023-05-10T05:56:42;14.00;99.90
14411;DHT22;7290;50.854;4.354;2023-05-10T05:59:09;14.00;99.90
14411;DHT22;7290;50.854;4.354;2023-05-10T06:01:35;14.00;99.90
14411;DHT22;7290;50.854;4.354;2023-05-10T06:04:02;14.00;99.90
14411;DHT22;7290;50.854;4.354;2023-05-10T06:06:28;14.30;99.90
14411;DHT22;7290;50.854;4.354;2023-05-10T06:08:54;14.30;99.90
14411;DHT22;7290;50.854;4.354;2023-05-10T06:11:21;14.10;99.90
14411;DHT22;7290;50.854;4.354;2023-05-10T06:13:47;14.10;99.90
14411;DHT22;7290;50.854;4.354;2023-05-10T06:16:13;14.00;99.90
14411;DHT22;7290;50.854;4.354;2023-05-10T06:18:39;13.90;99.90
14411;DHT22;7290;50.854;4.354;2023-05-10T06:21:06;13.90;99.90
14411;DHT22;7290;50.854;4.354;2023-05-10T06:23:32;13.90;99.90
14411;DHT22;7290;50.854;4.354;2023-05-10T06:25:58;13.80;99.90
14411;DHT22;7290;50.854;4.354;2023-05-10T06:28:24;13.70;99.90
14411;DHT22;7290;50.854;4.354;2023-05-10T06:30:50;13.70;99.90
14411;DHT22;7290;50.854;4.354;2023-05-10T06:33:16;13.70;99.90
14411;DHT22;7290;50.854;4.354;2023-05-10T06:35:42;13.70;99.90
14411;DHT22;7290;50.854;4.354;2023-05-10T06:38:09;13.70;99.90
14411;DHT22;7290;50.854;4.354;2023-05-10T06:40:36;13.60;99.90
14411;DHT22;7290;50.854;4.354;2023-05-10T06:43:02;13.60;99.90
14411;DHT22;7290;50.854;4.354;2023-05-10T06:45:28;13.50;99.90
14411;DHT22;7290;50.854;4.354;2023-05-10T06:47:54;13.40;99.90
14411;DHT22;7290;50.854;4.354;2023-05-10T06:50:20;13.50;99.90
14411;DHT22;7290;50.854;4.354;2023-05-10T06:52:46;13.50;99.90
14411;DHT22;7290;50.854;4.354;2023-05-10T06:55:13;13.50;99.90
14411;DHT22;7290;50.854;4.354;2023-05-10T06:57:39;13.50;99.90
14411;DHT22;7290;50.854;4.354;2023-05-10T07:00:06;13.60;99.90
14411;DHT22;7290;50.854;4.354;2023-05-10T07:02:33;13.60;99.90
14411;DHT22;7290;50.854;4.354;2023-05-10T07:04:59;13.70;99.90
14411;DHT22;7290;50.854;4.354;2023-05-10T07:07:25;13.50;99.90
14411;DHT22;7290;50.854;4.354;2023-05-10T07:09:51;13.50;99.90
14411;DHT22;7290;50.854;4.354;2023-05-10T07:12:17;13.40;99.90
14411;DHT22;7290;50.854;4.354;2023-05-10T07:14:43;13.40;99.90
14411;DHT22;7290;50.854;4.354;2023-05-10T07:17:10;13.50;99.90
14411;DHT22;7290;50.854;4.354;2023-05-10T07:19:36;13.60;99.90
14411;DHT22;7290;50.854;4.354;2023-05-10T07:22:02;13.50;99.90
14411;DHT22;7290;50.854;4.354;2023-05-10T07:24:28;13.60;99.90
14411;DHT22;7290;50.854;4.354;2023-05-10T07:26:54;13.60;99.90
14411;DHT22;7290;50.854;4.354;2023-05-10T07:29:21;13.50;99.90
14411;DHT22;7290;50.854;4.354;2023-05-10T07:31:47;13.50;99.90
14411;DHT22;7290;50.854;4.354;2023-05-10T07:34:13;13.60;99.90
14411;DHT22;7290;50.854;4.354;2023-05-10T07:36:39;13.70;99.90
14411;DHT22;7290;50.854;4.354;2023-05-10T07:39:05;13.80;99.90
14411;DHT22;7290;50.854;4.354;2023-05-10T07:41:31;13.80;99.90
14411;DHT22;7290;50.854;4.354;2023-05-10T07:43:57;14.00;99.90
14411;DHT22;7290;50.854;4.354;2023-05-10T07:46:24;14.10;99.90
14411;DHT22;7290;50.854;4.354;2023-05-10T07:48:50;14.10;99.90
14411;DHT22;7290;50.854;4.354;2023-05-10T07:51:16;14.00;99.90
14411;DHT22;7290;50.854;4.354;2023-05-10T07:53:42;14.00;99.90
14411;DHT22;7290;50.854;4.354;2023-05-10T07:56:22;14.00;99.90
14411;DHT22;7290;50.854;4.354;2023-05-10T07:58:50;14.00;99.90
14411;DHT22;7290;50.854;4.354;2023-05-10T08:01:16;14.20;99.90
14411;DHT22;7290;50.854;4.354;2023-05-10T08:03:43;14.10;99.90
14411;DHT22;7290;50.854;4.354;2023-05-10T08:06:09;14.30;99.90
14411;DHT22;7290;50.854;4.354;2023-05-10T08:08:35;14.40;99.90
14411;DHT22;7290;50.854;4.354;2023-05-10T08:11:01;14.50;99.90
14411;DHT22;7290;50.854;4.354;2023-05-10T08:13:28;14.60;99.90
14411;DHT22;7290;50.854;4.354;2023-05-10T08:15:54;14.50;99.90
14411;DHT22;7290;50.854;4.354;2023-05-10T08:18:20;14.60;99.90
14411;DHT22;7290;50.854;4.354;2023-05-10T08:20:47;14.50;99.90
14411;DHT22;7290;50.854;4.354;2023-05-10T08:23:13;14.30;99.90
14411;DHT22;7290;50.854;4.354;2023-05-10T08:25:39;14.30;99.90
14411;DHT22;7290;50.854;4.354;2023-05-10T08:28:05;14.30;99.90
14411;DHT22;7290;50.854;4.354;2023-05-10T08:30:31;14.30;99.90
14411;DHT22;7290;50.854;4.354;2023-05-10T08:32:57;14.20;99.90
14411;DHT22;7290;50.854;4.354;2023-05-10T08:35:23;14.20;99.90
14411;DHT22;7290;50.854;4.354;2023-05-10T08:37:50;14.50;99.90
14411;DHT22;7290;50.854;4.354;2023-05-10T08:40:19;14.80;99.90
14411;DHT22;7290;50.854;4.354;2023-05-10T08:42:50;14.80;99.90
14411;DHT22;7290;50.854;4.354;2023-05-10T08:45:18;15.00;99.90
14411;DHT22;7290;50.854;4.354;2023-05-10T08:47:45;15.00;99.90
14411;DHT22;7290;50.854;4.354;2023-05-10T08:50:12;14.70;99.90
14411;DHT22;7290;50.854;4.354;2023-05-10T08:52:40;14.70;99.90
14411;DHT22;7290;50.854;4.354;2023-05-10T08:55:08;15.00;99.90
14411;DHT22;7290;50.854;4.354;2023-05-10T08:57:34;15.20;99.90
14411;DHT22;7290;50.854;4.354;2023-05-10T09:00:01;15.40;99.90
14411;DHT22;7290;50.854;4.354;2023-05-10T09:02:28;15.30;99.90
14411;DHT22;7290;50.854;4.354;2023-05-10T09:04:54;14.80;99.90
14411;DHT22;7290;50.854;4.354;2023-05-10T09:07:20;14.60;99.90
14411;DHT22;7290;50.854;4.354;2023-05-10T09:09:47;14.70;99.90
14411;DHT22;7290;50.854;4.354;2023-05-10T09:12:14;14.60;99.90
14411;DHT22;7290;50.854;4.354;2023-05-10T09:14:42;14.50;99.90
14411;DHT22;7290;50.854;4.354;2023-05-10T09:17:10;14.40;99.90
14411;DHT22;7290;50.854;4.354;2023-05-10T09:19:36;14.40;99.90
14411;DHT22;7290;50.854;4.354;2023-05-10T09:22:02;14.30;99.90
14411;DHT22;7290;50.854;4.354;2023-05-10T09:24:29;14.20;99.90
14411;DHT22;7290;50.854;4.354;2023-05-10T09:26:56;14.10;99.90
14411;DHT22;7290;50.854;4.354;2023-05-10T09:29:23;14.10;99.90
14411;DHT22;7290;50.854;4.354;2023-05-10T09:31:51;14.10;99.90
14411;DHT22;7290;50.854;4.354;2023-05-10T09:34:19;14.20;99.90
14411;DHT22;7290;50.854;4.354;2023-05-10T09:36:53;14.20;99.90
14411;DHT22;7290;50.854;4.354;2023-05-10T09:39:20;14.20;99.90
14411;DHT22;7290;50.854;4.354;2023-05-10T09:41:46;14.20;99.90
14411;DHT22;7290;50.854;4.354;2023-05-10T09:44:16;14.20;99.90
14411;DHT22;7290;50.854;4.354;2023-05-10T09:46:49;14.20;99.90
14411;DHT22;7290;50.854;4.354;2023-05-10T09:49:16;14.20;99.90
14411;DHT22;7290;50.854;4.354;2023-05-10T09:51:42;14.40;99.90
14411;DHT22;7290;50.854;4.354;2023-05-10T09:54:10;14.40;99.90
14411;DHT22;7290;50.854;4.354;2023-05-10T09:56:36;14.50;99.90
14411;DHT22;7290;50.854;4.354;2023-05-10T09:59:05;14.40;99.90
14411;DHT22;7290;50.854;4.354;2023-05-10T10:01:32;14.40;99.90
14411;DHT22;7290;50.854;4.354;2023-05-10T10:03:59;14.40;99.90
14411;DHT22;7290;50.854;4.354;2023-05-10T10:06:28;14.50;99.90
14411;DHT22;7290;50.854;4.354;2023-05-10T10:08:54;14.70;99.90
14411;DHT22;7290;50.854;4.354;2023-05-10T10:11:22;14.70;99.90
14411;DHT22;7290;50.854;4.354;2023-05-10T10:13:49;14.60;99.90
14411;DHT22;7290;50.854;4.354;2023-05-10T10:16:15;14.50;99.90
14411;DHT22;7290;50.854;4.354;2023-05-10T10:18:42;14.40;99.90
14411;DHT22;7290;50.854;4.354;2023-05-10T10:21:09;14.30;99.90
14411;DHT22;7290;50.854;4.354;2023-05-10T10:23:35;14.40;99.90
14411;DHT22;7290;50.854;4.354;2023-05-10T10:26:02;14.50;99.90
14411;DHT22;7290;50.854;4.354;2023-05-10T10:28:35;14.40;99.90
14411;DHT22;7290;50.854;4.354;2023-05-10T10:31:15;14.40;99.90
14411;DHT22;7290;50.854;4.354;2023-05-10T10:33:56;14.40;99.90
14411;DHT22;7290;50.854;4.354;2023-05-10T10:36:25;14.50;99.90
14411;DHT22;7290;50.854;4.354;2023-05-10T10:39:00;14.60;99.90
14411;DHT22;7290;50.854;4.354;2023-05-10T10:41:32;14.50;99.90
14411;DHT22;7290;50.854;4.354;2023-05-10T10:44:23;14.50;99.90
14411;DHT22;7290;50.854;4.354;2023-05-10T10:47:00;14.50;99.90
14411;DHT22;7290;50.854;4.354;2023-05-10T10:49:27;14.60;99.90
14411;DHT22;7290;50.854;4.354;2023-05-10T10:52:17;14.70;99.90
14411;DHT22;7290;50.854;4.354;2023-05-10T10:54:52;14.80;99.90
14411;DHT22;7290;50.854;4.354;2023-05-10T10:57:20;15.00;99.90
14411;DHT22;7290;50.854;4.354;2023-05-10T10:59:50;15.00;99.90
14411;DHT22;7290;50.854;4.354;2023-05-10T11:02:43;15.10;99.90
14411;DHT22;7290;50.854;4.354;2023-05-10T11:05:34;15.00;99.90
14411;DHT22;7290;50.854;4.354;2023-05-10T11:08:15;15.00;99.90
14411;DHT22;7290;50.854;4.354;2023-05-10T11:13:37;14.80;99.90
14411;DHT22;7290;50.854;4.354;2023-05-10T11:16:14;14.70;99.90
14411;DHT22;7290;50.854;4.354;2023-05-10T11:18:41;14.80;99.90
14411;DHT22;7290;50.854;4.354;2023-05-10T11:21:17;15.00;99.90
14411;DHT22;7290;50.854;4.354;2023-05-10T11:23:51;14.90;99.90
14411;DHT22;7290;50.854;4.354;2023-05-10T11:26:18;15.10;99.90
14411;DHT22;7290;50.854;4.354;2023-05-10T11:28:46;15.40;99.90
14411;DHT22;7290;50.854;4.354;2023-05-10T11:31:15;15.60;99.90
14411;DHT22;7290;50.854;4.354;2023-05-10T11:33:45;15.80;99.90
14411;DHT22;7290;50.854;4.354;2023-05-10T11:36:13;16.10;99.90
14411;DHT22;7290;50.854;4.354;2023-05-10T11:38:39;16.30;99.90
14411;DHT22;7290;50.854;4.354;2023-05-10T11:41:08;16.50;99.90
14411;DHT22;7290;50.854;4.354;2023-05-10T11:43:34;16.40;99.90
14411;DHT22;7290;50.854;4.354;2023-05-10T11:46:05;16.40;99.90
14411;DHT22;7290;50.854;4.354;2023-05-10T11:48:32;16.30;99.90
14411;DHT22;7290;50.854;4.354;2023-05-10T11:50:58;16.50;99.90
14411;DHT22;7290;50.854;4.354;2023-05-10T11:53:26;16.50;99.90
14411;DHT22;7290;50.854;4.354;2023-05-10T11:55:52;16.50;99.90
14411;DHT22;7290;50.854;4.354;2023-05-10T11:58:18;16.40;99.90
14411;DHT22;7290;50.854;4.354;2023-05-10T12:00:46;16.50;99.90
14411;DHT22;7290;50.854;4.354;2023-05-10T12:03:13;16.60;99.90
14411;DHT22;7290;50.854;4.354;2023-05-10T12:05:40;16.90;99.90
14411;DHT22;7290;50.854;4.354;2023-05-10T12:08:11;17.20;99.90
14411;DHT22;7290;50.854;4.354;2023-05-10T12:10:40;17.10;99.90
14411;DHT22;7290;50.854;4.354;2023-05-10T12:13:11;17.00;99.90
14411;DHT22;7290;50.854;4.354;2023-05-10T12:15:38;17.20;99.90
14411;DHT22;7290;50.854;4.354;2023-05-10T12:18:04;17.00;99.90
14411;DHT22;7290;50.854;4.354;2023-05-10T12:20:31;16.80;99.90
14411;DHT22;7290;50.854;4.354;2023-05-10T12:22:58;17.00;99.90
14411;DHT22;7290;50.854;4.354;2023-05-10T12:25:29;17.60;99.90
14411;DHT22;7290;50.854;4.354;2023-05-10T12:27:57;17.70;99.90
14411;DHT22;7290;50.854;4.354;2023-05-10T12:30:27;17.40;99.90
14411;DHT22;7290;50.854;4.354;2023-05-10T12:32:59;17.10;99.90
14411;DHT22;7290;50.854;4.354;2023-05-10T12:35:25;17.20;99.90
14411;DHT22;7290;50.854;4.354;2023-05-10T12:37:51;17.80;99.90
14411;DHT22;7290;50.854;4.354;2023-05-10T12:40:18;17.60;99.90
14411;DHT22;7290;50.854;4.354;2023-05-10T12:42:44;17.40;99.90
14411;DHT22;7290;50.854;4.354;2023-05-10T12:45:11;17.70;99.90
14411;DHT22;7290;50.854;4.354;2023-05-10T12:47:37;18.00;99.90
14411;DHT22;7290;50.854;4.354;2023-05-10T12:50:05;17.80;99.90
14411;DHT22;7290;50.854;4.354;2023-05-10T12:52:32;18.10;99.90
14411;DHT22;7290;50.854;4.354;2023-05-10T12:54:58;18.30;99.90
14411;DHT22;7290;50.854;4.354;2023-05-10T12:57:25;18.30;99.90
14411;DHT22;7290;50.854;4.354;2023-05-10T12:59:52;18.40;99.90
14411;DHT22;7290;50.854;4.354;2023-05-10T13:02:18;18.30;99.90
14411;DHT22;7290;50.854;4.354;2023-05-10T13:04:46;18.50;99.90
14411;DHT22;7290;50.854;4.354;2023-05-10T13:07:13;18.80;99.90
14411;DHT22;7290;50.854;4.354;2023-05-10T13:09:40;18.50;99.90
14411;DHT22;7290;50.854;4.354;2023-05-10T13:12:07;18.40;99.90
14411;DHT22;7290;50.854;4.354;2023-05-10T13:14:34;18.70;99.90
14411;DHT22;7290;50.854;4.354;2023-05-10T13:17:00;18.30;99.90
14411;DHT22;7290;50.854;4.354;2023-05-10T13:19:26;18.60;99.90
14411;DHT22;7290;50.854;4.354;2023-05-10T13:21:52;18.40;99.90
14411;DHT22;7290;50.854;4.354;2023-05-10T13:24:19;18.40;99.90
14411;DHT22;7290;50.854;4.354;2023-05-10T13:26:45;18.50;99.90
14411;DHT22;7290;50.854;4.354;2023-05-10T13:29:11;18.20;99.90
14411;DHT22;7290;50.854;4.354;2023-05-10T13:31:37;18.00;99.90
14411;DHT22;7290;50.854;4.354;2023-05-10T13:34:04;18.10;99.90
14411;DHT22;7290;50.854;4.354;2023-05-10T13:36:31;18.50;99.90
14411;DHT22;7290;50.854;4.354;2023-05-10T13:38:57;18.90;99.90
14411;DHT22;7290;50.854;4.354;2023-05-10T13:41:24;18.90;99.90
14411;DHT22;7290;50.854;4.354;2023-05-10T13:43:50;19.00;99.90
14411;DHT22;7290;50.854;4.354;2023-05-10T13:46:16;19.30;99.90
14411;DHT22;7290;50.854;4.354;2023-05-10T13:48:42;19.10;99.90
14411;DHT22;7290;50.854;4.354;2023-05-10T13:51:09;18.50;99.90
14411;DHT22;7290;50.854;4.354;2023-05-10T13:53:35;18.40;99.90
14411;DHT22;7290;50.854;4.354;2023-05-10T13:56:02;18.70;99.90
14411;DHT22;7290;50.854;4.354;2023-05-10T13:58:29;18.70;99.90
14411;DHT22;7290;50.854;4.354;2023-05-10T14:00:55;18.60;99.90
14411;DHT22;7290;50.854;4.354;2023-05-10T14:03:22;18.10;99.90
14411;DHT22;7290;50.854;4.354;2023-05-10T14:05:48;17.90;99.90
14411;DHT22;7290;50.854;4.354;2023-05-10T14:08:14;18.00;99.90
14411;DHT22;7290;50.854;4.354;2023-05-10T14:10:40;18.10;99.90
14411;DHT22;7290;50.854;4.354;2023-05-10T14:13:06;18.00;99.90
14411;DHT22;7290;50.854;4.354;2023-05-10T14:15:34;18.10;99.90
14411;DHT22;7290;50.854;4.354;2023-05-10T14:18:00;18.00;99.90
14411;DHT22;7290;50.854;4.354;2023-05-10T14:20:26;18.00;99.90
14411;DHT22;7290;50.854;4.354;2023-05-10T14:22:52;18.20;99.90
14411;DHT22;7290;50.854;4.354;2023-05-10T14:25:18;18.30;99.90
14411;DHT22;7290;50.854;4.354;2023-05-10T14:27:44;18.30;99.90
14411;DHT22;7290;50.854;4.354;2023-05-10T14:30:12;18.30;99.90
14411;DHT22;7290;50.854;4.354;2023-05-10T14:32:38;18.30;99.90
14411;DHT22;7290;50.854;4.354;2023-05-10T14:35:06;18.40;99.90
14411;DHT22;7290;50.854;4.354;2023-05-10T14:37:32;18.30;99.90
14411;DHT22;7290;50.854;4.354;2023-05-10T14:39:58;18.30;99.90
14411;DHT22;7290;50.854;4.354;2023-05-10T14:42:24;18.60;99.90
14411;DHT22;7290;50.854;4.354;2023-05-10T14:44:51;18.40;99.90
14411;DHT22;7290;50.854;4.354;2023-05-10T14:47:17;18.10;99.90
14411;DHT22;7290;50.854;4.354;2023-05-10T14:49:44;18.10;99.90
14411;DHT22;7290;50.854;4.354;2023-05-10T14:52:10;17.80;99.90
14411;DHT22;7290;50.854;4.354;2023-05-10T14:54:37;17.70;99.90
14411;DHT22;7290;50.854;4.354;2023-05-10T14:57:04;17.40;99.90
14411;DHT22;7290;50.854;4.354;2023-05-10T14:59:30;17.60;99.90
14411;DHT22;7290;50.854;4.354;2023-05-10T15:01:56;17.10;99.90
14411;DHT22;7290;50.854;4.354;2023-05-10T15:04:22;16.90;99.90
14411;DHT22;7290;50.854;4.354;2023-05-10T15:06:49;16.80;99.90
14411;DHT22;7290;50.854;4.354;2023-05-10T15:09:15;16.70;99.90
14411;DHT22;7290;50.854;4.354;2023-05-10T15:11:42;16.50;99.90
14411;DHT22;7290;50.854;4.354;2023-05-10T15:14:08;16.70;99.90
14411;DHT22;7290;50.854;4.354;2023-05-10T15:16:34;16.70;99.90
14411;DHT22;7290;50.854;4.354;2023-05-10T15:19:00;16.60;99.90
14411;DHT22;7290;50.854;4.354;2023-05-10T15:21:26;16.70;99.90
14411;DHT22;7290;50.854;4.354;2023-05-10T15:23:53;16.70;99.90
14411;DHT22;7290;50.854;4.354;2023-05-10T15:26:20;16.60;99.90
14411;DHT22;7290;50.854;4.354;2023-05-10T15:28:47;16.50;99.90
14411;DHT22;7290;50.854;4.354;2023-05-10T15:31:13;16.50;99.90
14411;DHT22;7290;50.854;4.354;2023-05-10T15:33:40;16.70;99.90
14411;DHT22;7290;50.854;4.354;2023-05-10T15:36:06;16.80;99.90
14411;DHT22;7290;50.854;4.354;2023-05-10T15:38:32;16.80;99.90
14411;DHT22;7290;50.854;4.354;2023-05-10T15:40:59;17.00;99.90
14411;DHT22;7290;50.854;4.354;2023-05-10T15:43:25;17.00;99.90
14411;DHT22;7290;50.854;4.354;2023-05-10T15:45:51;17.00;99.90
14411;DHT22;7290;50.854;4.354;2023-05-10T15:48:17;17.30;99.90
14411;DHT22;7290;50.854;4.354;2023-05-10T15:50:43;17.40;99.90
14411;DHT22;7290;50.854;4.354;2023-05-10T15:53:09;17.60;99.90